Aviation Digital Data Service (ADDS)

Output produced by METARs form (0535 UTC 01 September 2016)
found at http://aviationweather.gov/adds/metars/
 
KMGW 010532Z 0106/0206 03004KT P6SM VCSH BKN015 
     FM010900 00000KT 4SM BR OVC008 
     FM011200 33005KT P6SM BKN015 
     FM011400 34006KT P6SM BKN025 
     FM011600 34007KT P6SM SCT035